Terminal Aerodrome Forecast
Issued by NWS Charleston, WV

Current Version | Previous Version | Graphics & Text | Print | Product List | Glossary On
Versions: 1 2 3 4 5 6 7 8 9 10 11 12 13 14 15 16 17 18 19 20 21 22 23 24 25 26 27 28
000
FTUS41 KRLX 192300
TAFPKB
TAF
KPKB 192332Z 2000/2024 00000KT P6SM SCT250
     FM200700 00000KT 5SM BR SCT025 BKN250
      TEMPO 2008/2010 2SM BR SCT002
     FM201100 00000KT P6SM BKN025
     FM201300 VRB03KT P6SM BKN140
     FM201700 20007KT P6SM BKN090=

USA.gov is the U.S. government's official web portal to all federal, state and local government web resources and services.